Time,TemperatureF,DewpointF,PressureIn,WindDirection,WindDirectionDegrees,WindSpeedMPH,WindSpeedGustMPH,Humidity,HourlyPrecipIn,Conditions,Clouds,dailyrainin,SoftwareType,DateUTC
2013-03-03 00:04:00,23.4,22.9,30.00,SSE,158,0.0,0.0,98,0.00,CLR,,0.00,WeatherDisplay:10.37,2013-03-03 09:04:00,
2013-03-03 00:09:00,24.1,23.6,30.00,SSE,158,0.0,0.0,98,0.00,CLR,,0.00,WeatherDisplay:10.37,2013-03-03 09:09:00,
2013-03-03 00:14:00,24.3,23.8,30.00,SSE,158,0.0,0.0,98,0.00,CLR,,0.00,WeatherDisplay:10.37,2013-03-03 09:14:00,
2013-03-03 00:19:00,23.7,23.2,30.00,SSE,158,0.0,0.0,98,0.00,CLR,,0.00,WeatherDisplay:10.37,2013-03-03 09:19:00,
2013-03-03 00:24:00,24.4,24.0,30.00,SSE,158,0.0,0.0,98,0.00,CLR,,0.00,WeatherDisplay:10.37,2013-03-03 09:24:00,
2013-03-03 00:29:00,25.0,24.5,30.00,SSE,158,0.0,0.0,98,0.00,CLR,,0.00,WeatherDisplay:10.37,2013-03-03 09:29:00,
2013-03-03 00:34:00,25.2,24.7,30.00,SSE,158,0.0,0.0,98,0.00,CLR,,0.00,WeatherDisplay:10.37,2013-03-03 09:34:00,
2013-03-03 00:39:00,25.3,24.9,30.00,SSE,158,0.0,0.0,98,0.00,CLR,,0.00,WeatherDisplay:10.37,2013-03-03 09:39:00,
2013-03-03 00:44:00,25.5,25.0,30.00,SSE,158,0.0,0.0,98,0.00,CLR,,0.00,WeatherDisplay:10.37,2013-03-03 09:44:00,
2013-03-03 00:49:00,25.3,24.9,30.00,SSE,158,0.0,0.0,98,0.00,CLR,,0.00,WeatherDisplay:10.37,2013-03-03 09:49:00,
2013-03-03 00:54:00,25.3,24.9,30.00,SSE,158,0.0,0.0,98,0.00,CLR,,0.00,WeatherDisplay:10.37,2013-03-03 09:54:00,
2013-03-03 00:59:00,25.2,24.7,30.00,SSE,158,0.0,0.0,98,0.00,CLR,,0.00,WeatherDisplay:10.37,2013-03-03 09:59:00,
2013-03-03 01:04:00,25.2,24.7,30.00,SSE,158,0.0,0.0,98,0.00,CLR,,0.00,WeatherDisplay:10.37,2013-03-03 10:04:00,
2013-03-03 01:09:00,25.0,24.5,30.00,SSE,158,0.0,0.0,98,0.00,CLR,,0.00,WeatherDisplay:10.37,2013-03-03 10:09:00,
2013-03-03 01:14:00,25.0,24.5,30.00,SSE,158,0.0,0.0,98,0.00,CLR,,0.00,WeatherDisplay:10.37,2013-03-03 10:14:00,
2013-03-03 01:19:00,25.0,24.5,30.00,SSE,158,0.0,0.0,98,0.00,CLR,,0.00,WeatherDisplay:10.37,2013-03-03 10:19:00,
2013-03-03 01:24:00,25.0,24.5,30.00,SSE,158,0.0,0.0,98,0.00,CLR,,0.00,WeatherDisplay:10.37,2013-03-03 10:24:00,
2013-03-03 01:29:00,25.0,24.5,30.00,SSE,158,0.0,0.0,98,0.00,CLR,,0.00,WeatherDisplay:10.37,2013-03-03 10:29:00,
2013-03-03 01:34:00,25.0,24.5,30.00,SSE,158,0.0,0.0,98,0.00,CLR,,0.00,WeatherDisplay:10.37,2013-03-03 10:34:00,
2013-03-03 01:39:00,24.6,24.1,30.00,SSE,158,0.0,0.0,98,0.00,CLR,,0.00,WeatherDisplay:10.37,2013-03-03 10:39:00,
2013-03-03 01:44:00,24.4,24.0,30.00,SSE,158,0.0,0.0,98,0.00,CLR,,0.00,WeatherDisplay:10.37,2013-03-03 10:44:00,
2013-03-03 01:49:00,24.4,24.0,30.00,SSE,158,0.0,0.0,98,0.00,CLR,,0.00,WeatherDisplay:10.37,2013-03-03 10:49:00,
2013-03-03 01:55:00,24.6,24.1,30.00,SSE,158,0.0,0.0,98,0.00,CLR,,0.00,WeatherDisplay:10.37,2013-03-03 10:55:00,
2013-03-03 02:00:00,24.6,23.9,30.00,SSE,158,0.0,0.0,97,0.00,CLR,,0.00,WeatherDisplay:10.37,2013-03-03 11:00:00,
2013-03-03 02:05:00,24.4,23.5,30.00,SSE,158,0.0,0.0,96,0.00,CLR,,0.00,WeatherDisplay:10.37,2013-03-03 11:05:00,
2013-03-03 02:11:00,23.7,22.5,30.00,SSE,158,0.0,0.0,95,0.00,CLR,,0.00,WeatherDisplay:10.37,2013-03-03 11:11:00,
2013-03-03 02:16:00,23.4,22.1,30.00,SSE,158,0.0,0.0,95,0.00,CLR,,0.00,WeatherDisplay:10.37,2013-03-03 11:16:00,
2013-03-03 02:21:00,23.5,22.1,30.00,SSE,158,0.0,0.0,94,0.00,CLR,,0.00,WeatherDisplay:10.37,2013-03-03 11:21:00,
2013-03-03 02:26:00,23.9,21.7,30.00,SSE,158,0.0,0.0,91,0.00,CLR,,0.00,WeatherDisplay:10.37,2013-03-03 11:26:00,
2013-03-03 02:31:00,23.2,20.7,30.00,SSE,158,0.0,0.0,90,0.00,CLR,,0.00,WeatherDisplay:10.37,2013-03-03 11:31:00,
2013-03-03 02:36:00,22.8,20.3,30.03,SSE,158,0.0,0.0,90,0.00,CLR,,0.00,WeatherDisplay:10.37,2013-03-03 11:36:00,
2013-03-03 02:41:00,23.0,20.5,30.03,SSE,158,0.0,0.0,90,0.00,CLR,,0.00,WeatherDisplay:10.37,2013-03-03 11:41:00,
2013-03-03 02:46:00,22.5,20.0,30.03,SSE,158,0.0,0.0,90,0.00,CLR,,0.00,WeatherDisplay:10.37,2013-03-03 11:46:00,
2013-03-03 02:51:00,22.5,20.0,30.03,SSE,158,0.0,0.0,90,0.00,CLR,,0.00,WeatherDisplay:10.37,2013-03-03 11:51:00,
2013-03-03 02:56:00,21.9,19.4,30.03,SSE,158,0.0,0.0,90,0.00,CLR,,0.00,WeatherDisplay:10.37,2013-03-03 11:56:00,
2013-03-03 03:01:00,21.6,19.1,30.03,SSE,158,0.0,0.0,90,0.00,CLR,,0.00,WeatherDisplay:10.37,2013-03-03 12:01:00,
2013-03-03 03:06:00,21.4,18.9,30.03,SSE,158,0.0,0.0,90,0.00,CLR,,0.00,WeatherDisplay:10.37,2013-03-03 12:06:00,
2013-03-03 03:11:00,21.2,19.0,30.03,SSE,158,0.0,0.0,91,0.00,CLR,,0.00,WeatherDisplay:10.37,2013-03-03 12:11:00,
2013-03-03 03:16:00,20.8,18.6,30.03,SSE,158,0.0,0.0,91,0.00,CLR,,0.00,WeatherDisplay:10.37,2013-03-03 12:16:00,
2013-03-03 03:21:00,20.5,18.3,30.03,SSE,158,0.0,0.0,91,0.00,CLR,,0.00,WeatherDisplay:10.37,2013-03-03 12:21:00,
2013-03-03 03:26:00,20.3,18.1,30.03,SSE,158,0.0,0.0,91,0.00,CLR,,0.00,WeatherDisplay:10.37,2013-03-03 12:26:00,
2013-03-03 03:31:00,20.1,17.9,30.03,SSE,158,0.0,0.0,91,0.00,CLR,,0.00,WeatherDisplay:10.37,2013-03-03 12:31:00,
2013-03-03 03:36:00,19.8,17.6,30.03,SSE,158,0.0,0.0,91,0.00,CLR,,0.00,WeatherDisplay:10.37,2013-03-03 12:36:00,
2013-03-03 03:41:00,19.6,17.4,30.03,SSE,158,0.0,0.0,91,0.00,CLR,,0.00,WeatherDisplay:10.37,2013-03-03 12:41:00,
2013-03-03 03:46:00,19.2,17.3,30.03,SSE,158,0.0,0.0,92,0.00,CLR,,0.00,WeatherDisplay:10.37,2013-03-03 12:46:00,
2013-03-03 03:51:00,19.2,17.3,30.03,SSE,158,0.0,0.0,92,0.00,CLR,,0.00,WeatherDisplay:10.37,2013-03-03 12:51:00,
2013-03-03 03:56:00,19.2,17.3,30.03,SSE,158,0.0,0.0,92,0.00,CLR,,0.00,WeatherDisplay:10.37,2013-03-03 12:56:00,
2013-03-03 04:01:00,18.9,16.9,30.03,SSE,158,0.0,0.0,92,0.00,CLR,,0.00,WeatherDisplay:10.37,2013-03-03 13:01:00,
2013-03-03 04:06:00,18.5,16.6,30.03,SSE,158,0.0,0.0,92,0.00,CLR,,0.00,WeatherDisplay:10.37,2013-03-03 13:06:00,
2013-03-03 04:11:00,18.3,16.4,30.03,SSE,158,0.0,0.0,92,0.00,CLR,,0.00,WeatherDisplay:10.37,2013-03-03 13:11:00,
2013-03-03 04:16:00,18.1,16.2,30.03,SSE,158,0.0,0.0,92,0.00,CLR,,0.00,WeatherDisplay:10.37,2013-03-03 13:16:00,
2013-03-03 04:22:00,20.1,18.9,30.03,SSE,158,0.0,0.0,95,0.00,CLR,,0.00,WeatherDisplay:10.37,2013-03-03 13:22:00,
2013-03-03 04:27:00,19.6,18.4,30.03,SSE,158,0.0,0.0,95,0.00,CLR,,0.00,WeatherDisplay:10.37,2013-03-03 13:27:00,
2013-03-03 04:32:00,19.4,18.4,30.03,SSE,158,0.0,0.0,96,0.00,CLR,,0.00,WeatherDisplay:10.37,2013-03-03 13:32:00,
2013-03-03 04:37:00,19.4,18.4,30.06,SSE,158,0.0,0.0,96,0.00,CLR,,0.00,WeatherDisplay:10.37,2013-03-03 13:37:00,
2013-03-03 04:42:00,20.1,19.4,30.06,SSE,158,0.0,0.0,97,0.00,CLR,,0.00,WeatherDisplay:10.37,2013-03-03 13:42:00,
2013-03-03 04:47:00,19.8,19.0,30.06,SSE,158,0.0,0.0,97,0.00,CLR,,0.00,WeatherDisplay:10.37,2013-03-03 13:47:00,
2013-03-03 04:52:00,20.1,19.6,30.06,SSE,158,0.0,0.0,98,0.00,CLR,,0.00,WeatherDisplay:10.37,2013-03-03 13:52:00,
2013-03-03 04:57:00,20.3,19.8,30.06,SSE,158,0.0,0.0,98,0.00,CLR,,0.00,WeatherDisplay:10.37,2013-03-03 13:57:00,
2013-03-03 05:02:00,20.7,20.2,30.06,SSE,158,0.0,0.0,98,0.00,CLR,,0.00,WeatherDisplay:10.37,2013-03-03 14:02:00,
2013-03-03 05:07:00,20.5,20.0,30.06,SSE,158,0.0,0.0,98,0.00,CLR,,0.00,WeatherDisplay:10.37,2013-03-03 14:07:00,
2013-03-03 05:12:00,19.9,19.5,30.06,SSE,158,0.0,0.0,98,0.00,CLR,,0.00,WeatherDisplay:10.37,2013-03-03 14:12:00,
2013-03-03 05:17:00,20.1,19.6,30.06,SSE,158,0.0,0.0,98,0.00,CLR,,0.00,WeatherDisplay:10.37,2013-03-03 14:17:00,
2013-03-03 05:22:00,20.1,19.6,30.06,SSE,158,0.0,0.0,98,0.00,CLR,,0.00,WeatherDisplay:10.37,2013-03-03 14:22:00,
2013-03-03 05:27:00,20.3,19.8,30.06,SSE,158,0.0,0.0,98,0.00,CLR,,0.00,WeatherDisplay:10.37,2013-03-03 14:27:00,
2013-03-03 05:32:00,20.3,19.6,30.06,SSE,158,0.0,0.0,97,0.00,CLR,,0.00,WeatherDisplay:10.37,2013-03-03 14:32:00,
2013-03-03 05:37:00,20.3,19.6,30.06,SSE,158,0.0,0.0,97,0.00,CLR,,0.00,WeatherDisplay:10.37,2013-03-03 14:37:00,
2013-03-03 05:42:00,20.7,19.9,30.06,SSE,158,0.0,0.0,97,0.00,CLR,,0.00,WeatherDisplay:10.37,2013-03-03 14:42:00,
2013-03-03 05:47:00,20.7,19.7,30.06,SSE,158,0.0,0.0,96,0.00,CLR,,0.00,WeatherDisplay:10.37,2013-03-03 14:47:00,
2013-03-03 05:52:00,20.7,19.5,30.06,SSE,158,0.0,0.0,95,0.00,CLR,,0.00,WeatherDisplay:10.37,2013-03-03 14:52:00,
2013-03-03 05:57:00,20.5,19.0,30.06,SSE,158,0.0,0.0,94,0.00,CLR,,0.00,WeatherDisplay:10.37,2013-03-03 14:57:00,
2013-03-03 06:02:00,20.3,18.8,30.06,SSE,158,0.0,0.0,94,0.00,CLR,,0.00,WeatherDisplay:10.37,2013-03-03 15:02:00,
2013-03-03 06:07:00,19.8,17.8,30.06,SSE,158,0.0,0.0,92,0.00,CLR,,0.00,WeatherDisplay:10.37,2013-03-03 15:07:00,
2013-03-03 06:12:00,20.1,18.2,30.06,SSE,158,0.0,0.0,92,0.00,CLR,,0.00,WeatherDisplay:10.37,2013-03-03 15:12:00,
2013-03-03 06:17:00,19.2,17.3,30.06,SSE,158,0.0,0.0,92,0.00,CLR,,0.00,WeatherDisplay:10.37,2013-03-03 15:17:00,
2013-03-03 06:22:00,19.0,16.8,30.06,SSE,158,0.0,0.0,91,0.00,CLR,,0.00,WeatherDisplay:10.37,2013-03-03 15:22:00,
2013-03-03 06:27:00,18.3,16.1,30.06,SSE,158,0.0,0.0,91,0.00,CLR,,0.00,WeatherDisplay:10.37,2013-03-03 15:27:00,
2013-03-03 06:32:00,18.7,16.5,30.06,SSE,158,0.0,0.0,91,0.00,CLR,,0.00,WeatherDisplay:10.37,2013-03-03 15:32:00,
2013-03-03 06:37:00,19.8,18.1,30.09,SSE,158,0.0,0.0,93,0.00,CLR,,0.00,WeatherDisplay:10.37,2013-03-03 15:37:00,
2013-03-03 06:42:00,19.2,17.8,30.09,SSE,158,0.0,0.0,94,0.00,CLR,,0.00,WeatherDisplay:10.37,2013-03-03 15:42:00,
2013-03-03 06:47:00,19.6,17.9,30.09,SSE,158,0.0,0.0,93,0.00,CLR,,0.00,WeatherDisplay:10.37,2013-03-03 15:47:00,
2013-03-03 06:52:00,19.4,18.0,30.09,SSE,158,0.0,0.0,94,0.00,CLR,,0.00,WeatherDisplay:10.37,2013-03-03 15:52:00,
2013-03-03 06:57:00,19.0,17.4,30.09,SSE,158,0.0,0.0,93,0.00,CLR,,0.00,WeatherDisplay:10.37,2013-03-03 15:57:00,
2013-03-03 07:02:00,19.0,17.1,30.09,SSE,158,0.0,0.0,92,0.00,CLR,,0.00,WeatherDisplay:10.37,2013-03-03 16:02:00,
2013-03-03 07:07:00,19.0,17.1,30.09,SSE,158,0.0,0.0,92,0.00,CLR,,0.00,WeatherDisplay:10.37,2013-03-03 16:07:00,
2013-03-03 07:12:00,19.0,17.1,30.09,SSE,158,0.0,0.0,92,0.00,CLR,,0.00,WeatherDisplay:10.37,2013-03-03 16:12:00,
2013-03-03 07:17:00,19.9,18.5,30.09,SSE,158,0.0,0.0,94,0.00,CLR,,0.00,WeatherDisplay:10.37,2013-03-03 16:17:00,
2013-03-03 07:22:00,20.1,18.9,30.09,SSE,158,0.0,0.0,95,0.00,CLR,,0.00,WeatherDisplay:10.37,2013-03-03 16:22:00,
2013-03-03 07:27:00,20.1,18.7,30.09,SSE,158,0.0,0.0,94,0.00,CLR,,0.00,WeatherDisplay:10.37,2013-03-03 16:27:00,
2013-03-03 07:32:00,19.4,17.7,30.09,SSE,158,0.0,0.0,93,0.00,CLR,,0.00,WeatherDisplay:10.37,2013-03-03 16:32:00,
2013-03-03 07:37:00,19.0,17.1,30.09,SSE,158,0.0,0.0,92,0.00,CLR,,0.00,WeatherDisplay:10.37,2013-03-03 16:37:00,
2013-03-03 07:42:00,18.7,16.7,30.09,SSE,158,0.0,0.0,92,0.00,CLR,,0.00,WeatherDisplay:10.37,2013-03-03 16:42:00,
2013-03-03 07:47:00,18.7,16.5,30.09,SSE,158,0.0,0.0,91,0.00,CLR,,0.00,WeatherDisplay:10.37,2013-03-03 16:47:00,
2013-03-03 07:52:00,18.7,16.5,30.09,SSE,158,0.0,0.0,91,0.00,CLR,,0.00,WeatherDisplay:10.37,2013-03-03 16:52:00,
2013-03-03 07:57:00,19.6,17.6,30.09,SSE,158,0.0,0.0,92,0.00,CLR,,0.00,WeatherDisplay:10.37,2013-03-03 16:57:00,
2013-03-03 08:02:00,18.7,16.7,30.09,SSE,158,0.0,0.0,92,0.00,CLR,,0.00,WeatherDisplay:10.37,2013-03-03 17:02:00,
2013-03-03 08:07:00,19.0,16.8,30.09,SSE,158,0.0,0.0,91,0.00,CLR,,0.00,WeatherDisplay:10.37,2013-03-03 17:07:00,
2013-03-03 08:12:00,19.2,17.3,30.09,SSE,158,0.0,0.0,92,0.00,CLR,,0.00,WeatherDisplay:10.37,2013-03-03 17:12:00,
2013-03-03 08:17:00,19.2,17.3,30.09,SSE,158,0.0,0.0,92,0.00,CLR,,0.00,WeatherDisplay:10.37,2013-03-03 17:17:00,
2013-03-03 08:22:00,19.2,17.3,30.09,SSE,158,0.0,0.0,92,0.00,CLR,,0.00,WeatherDisplay:10.37,2013-03-03 17:22:00,
2013-03-03 08:27:00,19.2,17.3,30.09,SSE,158,0.0,0.0,92,0.00,CLR,,0.00,WeatherDisplay:10.37,2013-03-03 17:27:00,
2013-03-03 08:32:00,19.6,17.4,30.09,SSE,158,0.0,0.0,91,0.00,CLR,,0.00,WeatherDisplay:10.37,2013-03-03 17:32:00,
2013-03-03 08:37:00,19.8,17.6,30.12,SSE,158,0.0,0.0,91,0.00,CLR,,0.00,WeatherDisplay:10.37,2013-03-03 17:37:00,
2013-03-03 08:43:00,20.1,18.2,30.12,SSE,158,0.0,0.0,92,0.00,CLR,,0.00,WeatherDisplay:10.37,2013-03-03 17:43:00,
2013-03-03 08:48:00,20.7,18.7,30.12,SSE,158,0.0,0.0,92,0.00,CLR,,0.00,WeatherDisplay:10.37,2013-03-03 17:48:00,
2013-03-03 08:53:00,20.8,18.9,30.12,SSE,158,0.0,0.0,92,0.00,CLR,,0.00,WeatherDisplay:10.37,2013-03-03 17:53:00,
2013-03-03 08:58:00,20.8,18.6,30.12,SSE,158,0.0,0.0,91,0.00,CLR,,0.00,WeatherDisplay:10.37,2013-03-03 17:58:00,
2013-03-03 09:03:00,20.8,18.6,30.12,SSE,158,0.0,0.0,91,0.00,CLR,,0.00,WeatherDisplay:10.37,2013-03-03 18:03:00,
2013-03-03 09:08:00,21.0,18.8,30.12,SSE,158,0.0,0.0,91,0.00,CLR,,0.00,WeatherDisplay:10.37,2013-03-03 18:08:00,
2013-03-03 09:13:00,21.4,19.2,30.12,SSE,158,0.0,0.0,91,0.00,CLR,,0.00,WeatherDisplay:10.37,2013-03-03 18:13:00,
2013-03-03 09:18:00,21.6,19.3,30.12,SSE,158,0.0,0.0,91,0.00,CLR,,0.00,WeatherDisplay:10.37,2013-03-03 18:18:00,
2013-03-03 09:23:00,21.9,19.7,30.12,SSE,158,0.0,0.0,91,0.00,CLR,,0.00,WeatherDisplay:10.37,2013-03-03 18:23:00,
2013-03-03 09:28:00,22.5,19.7,30.12,SSE,158,0.0,0.0,89,0.00,CLR,,0.00,WeatherDisplay:10.37,2013-03-03 18:28:00,
2013-03-03 09:33:00,22.8,19.5,30.12,SSE,158,0.0,0.0,87,0.00,CLR,,0.00,WeatherDisplay:10.37,2013-03-03 18:33:00,
2013-03-03 09:38:00,22.8,18.7,30.15,SSE,158,0.0,0.0,84,0.00,CLR,,0.00,WeatherDisplay:10.37,2013-03-03 18:38:00,
2013-03-03 09:43:00,23.2,17.9,30.15,SSE,158,0.0,0.0,80,0.00,CLR,,0.00,WeatherDisplay:10.37,2013-03-03 18:43:00,
2013-03-03 09:48:00,23.2,17.9,30.15,SSE,158,0.0,0.0,80,0.00,CLR,,0.00,WeatherDisplay:10.37,2013-03-03 18:48:00,
2013-03-03 09:53:00,23.5,18.3,30.15,SSE,158,0.0,0.0,80,0.00,CLR,,0.00,WeatherDisplay:10.37,2013-03-03 18:53:00,
2013-03-03 09:58:00,23.7,18.5,30.15,SSE,158,0.0,0.0,80,0.00,CLR,,0.00,WeatherDisplay:10.37,2013-03-03 18:58:00,
2013-03-03 10:03:00,23.9,18.6,30.15,SSE,158,0.0,0.0,80,0.00,CLR,,0.00,WeatherDisplay:10.37,2013-03-03 19:03:00,
2013-03-03 10:08:00,24.1,18.2,30.15,SSE,158,0.0,0.0,78,0.00,CLR,,0.00,WeatherDisplay:10.37,2013-03-03 19:08:00,
2013-03-03 10:13:00,24.3,17.8,30.15,SSE,158,0.0,0.0,76,0.00,CLR,,0.00,WeatherDisplay:10.37,2013-03-03 19:13:00,
2013-03-03 10:18:00,24.4,18.0,30.15,SSE,158,0.0,0.0,76,0.00,CLR,,0.00,WeatherDisplay:10.37,2013-03-03 19:18:00,
2013-03-03 10:23:00,24.8,18.6,30.18,SSE,158,0.0,0.0,77,0.00,CLR,,0.00,WeatherDisplay:10.37,2013-03-03 19:23:00,
2013-03-03 10:28:00,25.2,18.7,30.18,SSE,158,0.0,0.0,76,0.00,CLR,,0.00,WeatherDisplay:10.37,2013-03-03 19:28:00,
2013-03-03 10:33:00,25.3,19.1,30.18,SSE,158,0.0,0.0,77,0.00,CLR,,0.00,WeatherDisplay:10.37,2013-03-03 19:33:00,
2013-03-03 10:38:00,25.5,19.3,30.18,SSE,158,0.0,0.0,77,0.00,CLR,,0.00,WeatherDisplay:10.37,2013-03-03 19:38:00,
2013-03-03 10:43:00,25.7,19.5,30.18,SSE,158,0.0,0.0,77,0.00,CLR,,0.00,WeatherDisplay:10.37,2013-03-03 19:43:00,
2013-03-03 10:48:00,25.9,20.0,30.18,SSE,158,0.0,0.0,78,0.00,CLR,,0.00,WeatherDisplay:10.37,2013-03-03 19:48:00,
2013-03-03 10:53:00,25.7,19.2,30.18,SSE,158,0.0,0.0,76,0.00,CLR,,0.00,WeatherDisplay:10.37,2013-03-03 19:53:00,
2013-03-03 10:58:00,25.9,17.8,30.18,SSE,158,0.0,0.0,71,0.00,CLR,,0.00,WeatherDisplay:10.37,2013-03-03 19:58:00,
2013-03-03 11:03:00,25.9,17.1,30.18,SSE,158,0.0,0.0,69,0.00,CLR,,0.00,WeatherDisplay:10.37,2013-03-03 20:03:00,
2013-03-03 11:08:00,25.7,16.6,30.18,SSE,158,0.0,0.0,68,0.00,CLR,,0.00,WeatherDisplay:10.37,2013-03-03 20:08:00,
2013-03-03 11:14:00,25.7,17.3,30.18,SSE,158,0.0,0.0,70,0.00,CLR,,0.00,WeatherDisplay:10.37,2013-03-03 20:14:00,
2013-03-03 11:19:00,25.5,17.1,30.18,SSE,158,0.0,0.0,70,0.00,CLR,,0.00,WeatherDisplay:10.37,2013-03-03 20:19:00,
2013-03-03 11:24:00,25.5,16.4,30.18,SSE,158,0.0,0.0,68,0.00,CLR,,0.00,WeatherDisplay:10.37,2013-03-03 20:24:00,
2013-03-03 11:29:00,25.9,16.4,30.18,SSE,158,0.0,0.0,67,0.00,CLR,,0.00,WeatherDisplay:10.37,2013-03-03 20:29:00,
2013-03-03 11:34:00,26.2,17.4,30.18,SSE,158,0.0,0.0,69,0.00,CLR,,0.00,WeatherDisplay:10.37,2013-03-03 20:34:00,
2013-03-03 11:39:00,26.6,17.1,30.18,SSE,158,0.0,0.0,67,0.00,CLR,,0.00,WeatherDisplay:10.37,2013-03-03 20:39:00,
2013-03-03 11:44:00,27.1,17.6,30.18,SSE,158,0.0,0.0,67,0.00,CLR,,0.00,WeatherDisplay:10.37,2013-03-03 20:44:00,
2013-03-03 11:49:00,27.3,17.1,30.18,SSE,158,0.0,0.0,65,0.00,CLR,,0.00,WeatherDisplay:10.37,2013-03-03 20:49:00,
2013-03-03 11:54:00,27.0,15.3,30.18,SSE,158,0.0,0.0,61,0.00,CLR,,0.00,WeatherDisplay:10.37,2013-03-03 20:54:00,
2013-03-03 11:59:00,27.1,15.5,30.18,SSE,158,0.0,0.0,61,0.00,CLR,,0.00,WeatherDisplay:10.37,2013-03-03 20:59:00,
2013-03-03 12:04:00,27.1,14.7,30.21,SSE,158,0.0,0.0,59,0.00,CLR,,0.00,WeatherDisplay:10.37,2013-03-03 21:04:00,
2013-03-03 12:09:00,27.5,15.8,30.21,SSE,158,0.0,0.0,61,0.00,CLR,,0.00,WeatherDisplay:10.37,2013-03-03 21:09:00,
2013-03-03 12:14:00,27.3,16.4,30.21,SSE,158,0.0,0.0,63,0.00,CLR,,0.00,WeatherDisplay:10.37,2013-03-03 21:14:00,
2013-03-03 12:19:00,27.7,16.7,30.21,SSE,158,0.0,0.0,63,0.00,CLR,,0.00,WeatherDisplay:10.37,2013-03-03 21:19:00,
2013-03-03 12:24:00,27.9,16.1,30.21,SSE,158,0.0,0.0,61,0.00,CLR,,0.00,WeatherDisplay:10.37,2013-03-03 21:24:00,
2013-03-03 12:29:00,27.9,16.1,30.21,SSE,158,0.0,0.0,61,0.00,CLR,,0.00,WeatherDisplay:10.37,2013-03-03 21:29:00,
2013-03-03 12:34:00,28.2,16.9,30.21,SSE,158,0.0,0.0,62,0.00,CLR,,0.00,WeatherDisplay:10.37,2013-03-03 21:34:00,
2013-03-03 12:39:00,28.9,17.2,30.21,SSE,158,0.0,0.0,61,0.00,CLR,,0.00,WeatherDisplay:10.37,2013-03-03 21:39:00,
2013-03-03 12:44:00,29.1,16.2,30.21,SSE,158,0.0,0.0,58,0.00,CLR,,0.00,WeatherDisplay:10.37,2013-03-03 21:44:00,
2013-03-03 12:49:00,29.5,16.1,30.18,SSE,158,0.0,0.0,57,0.00,CLR,,0.00,WeatherDisplay:10.37,2013-03-03 21:49:00,
2013-03-03 12:54:00,29.1,15.4,30.18,SSE,158,0.0,0.0,56,0.00,CLR,,0.00,WeatherDisplay:10.37,2013-03-03 21:54:00,
2013-03-03 12:59:00,29.5,16.1,30.18,SSE,158,0.0,0.0,57,0.00,CLR,,0.00,WeatherDisplay:10.37,2013-03-03 21:59:00,
2013-03-03 13:05:00,29.5,15.7,30.18,SSE,158,0.0,0.0,56,0.00,CLR,,0.00,WeatherDisplay:10.37,2013-03-03 22:05:00,
2013-03-03 13:11:00,29.7,16.3,30.18,SSE,158,0.0,0.0,57,0.00,CLR,,0.00,WeatherDisplay:10.37,2013-03-03 22:11:00,
2013-03-03 13:16:00,29.7,15.9,30.18,SSE,158,0.0,0.0,56,0.00,CLR,,0.00,WeatherDisplay:10.37,2013-03-03 22:16:00,
2013-03-03 13:21:00,30.0,16.6,30.18,SSE,158,0.0,0.0,57,0.00,CLR,,0.00,WeatherDisplay:10.37,2013-03-03 22:21:00,
2013-03-03 13:26:00,29.8,16.0,30.18,SSE,158,0.0,0.0,56,0.00,CLR,,0.00,WeatherDisplay:10.37,2013-03-03 22:26:00,
2013-03-03 13:31:00,29.7,15.9,30.18,SSE,158,0.0,0.0,56,0.00,CLR,,0.00,WeatherDisplay:10.37,2013-03-03 22:31:00,
2013-03-03 13:36:00,29.5,16.1,30.21,SSE,158,0.0,0.0,57,0.00,CLR,,0.00,WeatherDisplay:10.37,2013-03-03 22:36:00,
2013-03-03 13:41:00,29.5,16.1,30.21,SSE,158,0.0,0.0,57,0.00,CLR,,0.00,WeatherDisplay:10.37,2013-03-03 22:41:00,
2013-03-03 13:46:00,29.7,16.3,30.21,SSE,158,0.0,0.0,57,0.00,CLR,,0.00,WeatherDisplay:10.37,2013-03-03 22:46:00,
2013-03-03 13:51:00,29.8,15.6,30.21,SSE,158,0.0,0.0,55,0.00,CLR,,0.00,WeatherDisplay:10.37,2013-03-03 22:51:00,
2013-03-03 13:56:00,29.8,15.6,30.21,SSE,158,0.0,0.0,55,0.00,CLR,,0.00,WeatherDisplay:10.37,2013-03-03 22:56:00,
2013-03-03 14:01:00,30.2,16.4,30.21,SSE,158,0.0,0.0,56,0.00,CLR,,0.00,WeatherDisplay:10.37,2013-03-03 23:01:00,
2013-03-03 14:06:00,30.7,16.5,30.21,SSE,158,0.0,0.0,55,0.00,CLR,,0.00,WeatherDisplay:10.37,2013-03-03 23:06:00,
2013-03-03 14:11:00,31.1,16.4,30.21,SSE,158,0.0,0.0,54,0.00,CLR,,0.00,WeatherDisplay:10.37,2013-03-03 23:11:00,
2013-03-03 14:16:00,31.5,16.3,30.21,SSE,158,0.0,0.0,53,0.00,CLR,,0.00,WeatherDisplay:10.37,2013-03-03 23:16:00,
2013-03-03 14:21:00,31.6,16.0,30.21,SSE,158,0.0,0.0,52,0.00,CLR,,0.00,WeatherDisplay:10.37,2013-03-03 23:21:00,
2013-03-03 14:26:00,31.5,15.4,30.21,SSE,158,0.0,0.0,51,0.00,CLR,,0.00,WeatherDisplay:10.37,2013-03-03 23:26:00,
2013-03-03 14:31:00,31.8,15.7,30.21,SSE,158,0.0,0.0,51,0.00,CLR,,0.00,WeatherDisplay:10.37,2013-03-03 23:31:00,
2013-03-03 14:36:00,32.2,16.1,30.21,SSE,158,0.0,0.0,51,0.00,CLR,,0.00,WeatherDisplay:10.37,2013-03-03 23:36:00,
2013-03-03 14:41:00,32.4,16.2,30.21,SSE,158,0.0,0.0,51,0.00,CLR,,0.00,WeatherDisplay:10.37,2013-03-03 23:41:00,
2013-03-03 14:46:00,32.4,16.2,30.21,SSE,158,0.0,0.0,51,0.00,CLR,,0.00,WeatherDisplay:10.37,2013-03-03 23:46:00,
2013-03-03 14:51:00,32.5,16.4,30.21,SSE,158,0.0,0.0,51,0.00,CLR,,0.00,WeatherDisplay:10.37,2013-03-03 23:51:00,
2013-03-03 14:56:00,32.4,15.8,30.21,SSE,158,0.0,0.0,50,0.00,CLR,,0.00,WeatherDisplay:10.37,2013-03-03 23:56:00,
2013-03-03 15:01:00,32.4,15.8,30.21,SSE,158,0.0,0.0,50,0.00,CLR,,0.00,WeatherDisplay:10.37,2013-03-04 00:01:00,
2013-03-03 15:06:00,32.5,15.9,30.21,SSE,158,0.0,0.0,50,0.00,CLR,,0.00,WeatherDisplay:10.37,2013-03-04 00:06:00,
2013-03-03 15:11:00,32.4,15.8,30.21,SSE,158,0.0,0.0,50,0.00,CLR,,0.00,WeatherDisplay:10.37,2013-03-04 00:11:00,
2013-03-03 15:16:00,32.4,15.8,30.21,SSE,158,0.0,0.0,50,0.00,CLR,,0.00,WeatherDisplay:10.37,2013-03-04 00:16:00,
2013-03-03 15:21:00,32.2,15.6,30.21,SSE,158,0.0,0.0,50,0.00,CLR,,0.00,WeatherDisplay:10.37,2013-03-04 00:21:00,
2013-03-03 15:26:00,32.5,15.9,30.21,SSE,158,0.0,0.0,50,0.00,CLR,,0.00,WeatherDisplay:10.37,2013-03-04 00:26:00,
2013-03-03 15:31:00,32.5,15.5,30.21,SSE,158,0.0,0.0,49,0.00,CLR,,0.00,WeatherDisplay:10.37,2013-03-04 00:31:00,
2013-03-03 15:36:00,32.5,15.5,30.21,SSE,158,0.0,0.0,49,0.00,CLR,,0.00,WeatherDisplay:10.37,2013-03-04 00:36:00,
2013-03-03 15:41:00,32.2,15.6,30.21,SSE,158,0.0,0.0,50,0.00,CLR,,0.00,WeatherDisplay:10.37,2013-03-04 00:41:00,
2013-03-03 15:46:00,32.2,15.6,30.21,SSE,158,0.0,0.0,50,0.00,CLR,,0.00,WeatherDisplay:10.37,2013-03-04 00:46:00,
2013-03-03 15:51:00,32.2,16.1,30.21,SSE,158,0.0,0.0,51,0.00,CLR,,0.00,WeatherDisplay:10.37,2013-03-04 00:51:00,
2013-03-03 15:56:00,32.0,15.9,30.21,SSE,158,0.0,0.0,51,0.00,CLR,,0.00,WeatherDisplay:10.37,2013-03-04 00:56:00,
2013-03-03 16:01:00,32.2,16.1,30.21,SSE,158,0.0,0.0,51,0.00,CLR,,0.00,WeatherDisplay:10.37,2013-03-04 01:01:00,
2013-03-03 16:06:00,32.2,16.5,30.21,SSE,158,0.0,0.0,52,0.00,CLR,,0.00,WeatherDisplay:10.37,2013-03-04 01:06:00,
2013-03-03 16:11:00,32.2,16.5,30.21,SSE,158,0.0,0.0,52,0.00,CLR,,0.00,WeatherDisplay:10.37,2013-03-04 01:11:00,
2013-03-03 16:16:00,32.2,16.9,30.21,SSE,158,0.0,0.0,53,0.00,CLR,,0.00,WeatherDisplay:10.37,2013-03-04 01:16:00,
2013-03-03 16:21:00,32.2,16.9,30.24,SSE,158,0.0,0.0,53,0.00,CLR,,0.00,WeatherDisplay:10.37,2013-03-04 01:21:00,
2013-03-03 16:26:00,32.2,16.9,30.24,SSE,158,0.0,0.0,53,0.00,CLR,,0.00,WeatherDisplay:10.37,2013-03-04 01:26:00,